sensor_id;sensor_type;location;lat;lon;timestamp;P1;durP1;ratioP1;P2;durP2;ratioP2
42964;SDS011;28604;51.204;22.552;2023-05-07T00:01:55;5.82;;;2.17;;
42964;SDS011;28604;51.204;22.552;2023-05-07T00:04:21;1.75;;;1.65;;
42964;SDS011;28604;51.204;22.552;2023-05-07T00:06:47;3.20;;;1.40;;
42964;SDS011;28604;51.204;22.552;2023-05-07T00:09:13;3.42;;;1.65;;
42964;SDS011;28604;51.204;22.552;2023-05-07T00:11:41;1.73;;;1.05;;
42964;SDS011;28604;51.204;22.552;2023-05-07T00:14:07;3.28;;;1.27;;
42964;SDS011;28604;51.204;22.552;2023-05-07T00:16:33;3.28;;;1.73;;
42964;SDS011;28604;51.204;22.552;2023-05-07T00:18:59;1.42;;;1.42;;
42964;SDS011;28604;51.204;22.552;2023-05-07T00:21:25;1.52;;;1.50;;
42964;SDS011;28604;51.204;22.552;2023-05-07T00:23:54;1.23;;;1.23;;
42964;SDS011;28604;51.204;22.552;2023-05-07T00:26:20;1.30;;;1.20;;
42964;SDS011;28604;51.204;22.552;2023-05-07T00:28:49;0.82;;;0.82;;
42964;SDS011;28604;51.204;22.552;2023-05-07T00:31:15;1.13;;;1.13;;
42964;SDS011;28604;51.204;22.552;2023-05-07T00:33:41;1.45;;;0.88;;
42964;SDS011;28604;51.204;22.552;2023-05-07T00:36:07;1.60;;;1.25;;
42964;SDS011;28604;51.204;22.552;2023-05-07T00:38:33;4.45;;;1.30;;
42964;SDS011;28604;51.204;22.552;2023-05-07T00:43:50;1.33;;;0.93;;
42964;SDS011;28604;51.204;22.552;2023-05-07T00:46:21;1.00;;;1.00;;
42964;SDS011;28604;51.204;22.552;2023-05-07T00:48:49;0.80;;;0.70;;
42964;SDS011;28604;51.204;22.552;2023-05-07T00:51:15;0.82;;;0.82;;
42964;SDS011;28604;51.204;22.552;2023-05-07T00:53:42;0.88;;;0.88;;
42964;SDS011;28604;51.204;22.552;2023-05-07T00:56:08;1.13;;;1.00;;
42964;SDS011;28604;51.204;22.552;2023-05-07T00:58:35;0.80;;;0.80;;
42964;SDS011;28604;51.204;22.552;2023-05-07T01:01:01;0.77;;;0.77;;
42964;SDS011;28604;51.204;22.552;2023-05-07T01:03:27;2.40;;;1.00;;
42964;SDS011;28604;51.204;22.552;2023-05-07T01:05:54;1.15;;;0.90;;
42964;SDS011;28604;51.204;22.552;2023-05-07T01:08:21;1.02;;;0.95;;
42964;SDS011;28604;51.204;22.552;2023-05-07T01:10:48;1.17;;;0.80;;
42964;SDS011;28604;51.204;22.552;2023-05-07T01:13:14;1.88;;;1.77;;
42964;SDS011;28604;51.204;22.552;2023-05-07T01:15:41;1.30;;;0.90;;
42964;SDS011;28604;51.204;22.552;2023-05-07T01:18:08;0.65;;;0.65;;
42964;SDS011;28604;51.204;22.552;2023-05-07T01:20:34;1.05;;;0.88;;
42964;SDS011;28604;51.204;22.552;2023-05-07T01:23:01;0.65;;;0.65;;
42964;SDS011;28604;51.204;22.552;2023-05-07T01:25:29;1.48;;;0.98;;
42964;SDS011;28604;51.204;22.552;2023-05-07T01:27:58;0.55;;;0.50;;
42964;SDS011;28604;51.204;22.552;2023-05-07T01:30:30;0.73;;;0.73;;
42964;SDS011;28604;51.204;22.552;2023-05-07T01:33:12;2.10;;;0.70;;
42964;SDS011;28604;51.204;22.552;2023-05-07T01:35:41;2.30;;;1.05;;
42964;SDS011;28604;51.204;22.552;2023-05-07T01:38:11;0.80;;;0.80;;
42964;SDS011;28604;51.204;22.552;2023-05-07T01:40:37;0.70;;;0.70;;
42964;SDS011;28604;51.204;22.552;2023-05-07T01:43:04;1.00;;;1.00;;
42964;SDS011;28604;51.204;22.552;2023-05-07T01:45:32;5.97;;;1.02;;
42964;SDS011;28604;51.204;22.552;2023-05-07T01:48:01;0.85;;;0.85;;
42964;SDS011;28604;51.204;22.552;2023-05-07T01:50:28;1.77;;;0.85;;
42964;SDS011;28604;51.204;22.552;2023-05-07T01:52:56;1.30;;;0.70;;
42964;SDS011;28604;51.204;22.552;2023-05-07T01:55:22;0.52;;;0.52;;
42964;SDS011;28604;51.204;22.552;2023-05-07T01:57:49;0.80;;;0.68;;
42964;SDS011;28604;51.204;22.552;2023-05-07T02:00:15;8.82;;;4.25;;
42964;SDS011;28604;51.204;22.552;2023-05-07T02:02:43;1.30;;;1.15;;
42964;SDS011;28604;51.204;22.552;2023-05-07T02:05:20;0.75;;;0.75;;
42964;SDS011;28604;51.204;22.552;2023-05-07T02:07:54;5.25;;;0.82;;
42964;SDS011;28604;51.204;22.552;2023-05-07T02:10:20;0.70;;;0.70;;
42964;SDS011;28604;51.204;22.552;2023-05-07T02:12:46;1.85;;;0.80;;
42964;SDS011;28604;51.204;22.552;2023-05-07T02:15:12;0.82;;;0.73;;
42964;SDS011;28604;51.204;22.552;2023-05-07T02:17:39;1.00;;;0.90;;
42964;SDS011;28604;51.204;22.552;2023-05-07T02:20:30;1.75;;;0.70;;
42964;SDS011;28604;51.204;22.552;2023-05-07T02:22:56;2.03;;;1.85;;
42964;SDS011;28604;51.204;22.552;2023-05-07T02:25:24;0.70;;;0.70;;
42964;SDS011;28604;51.204;22.552;2023-05-07T02:27:50;1.02;;;0.90;;
42964;SDS011;28604;51.204;22.552;2023-05-07T02:33:10;1.30;;;0.63;;
42964;SDS011;28604;51.204;22.552;2023-05-07T02:35:38;1.38;;;0.93;;
42964;SDS011;28604;51.204;22.552;2023-05-07T02:38:04;0.70;;;0.52;;
42964;SDS011;28604;51.204;22.552;2023-05-07T02:40:31;0.60;;;0.60;;
42964;SDS011;28604;51.204;22.552;2023-05-07T02:42:59;0.50;;;0.50;;
42964;SDS011;28604;51.204;22.552;2023-05-07T02:45:25;1.27;;;0.50;;
42964;SDS011;28604;51.204;22.552;2023-05-07T02:47:53;0.98;;;0.70;;
42964;SDS011;28604;51.204;22.552;2023-05-07T02:50:19;1.15;;;0.70;;
42964;SDS011;28604;51.204;22.552;2023-05-07T02:52:45;1.55;;;1.08;;
42964;SDS011;28604;51.204;22.552;2023-05-07T02:55:12;1.15;;;0.65;;
42964;SDS011;28604;51.204;22.552;2023-05-07T02:57:38;0.70;;;0.70;;
42964;SDS011;28604;51.204;22.552;2023-05-07T03:00:12;0.77;;;0.68;;
42964;SDS011;28604;51.204;22.552;2023-05-07T03:02:45;0.68;;;0.68;;
42964;SDS011;28604;51.204;22.552;2023-05-07T03:05:11;1.63;;;0.70;;
42964;SDS011;28604;51.204;22.552;2023-05-07T03:07:38;0.60;;;0.60;;
42964;SDS011;28604;51.204;22.552;2023-05-07T03:10:04;0.82;;;0.82;;
42964;SDS011;28604;51.204;22.552;2023-05-07T03:12:30;1.48;;;0.77;;
42964;SDS011;28604;51.204;22.552;2023-05-07T03:14:57;0.68;;;0.68;;
42964;SDS011;28604;51.204;22.552;2023-05-07T03:17:23;2.75;;;0.38;;
42964;SDS011;28604;51.204;22.552;2023-05-07T03:19:48;2.03;;;0.50;;
42964;SDS011;28604;51.204;22.552;2023-05-07T03:22:15;1.45;;;0.50;;
42964;SDS011;28604;51.204;22.552;2023-05-07T03:24:40;0.60;;;0.60;;
42964;SDS011;28604;51.204;22.552;2023-05-07T03:27:06;0.38;;;0.38;;
42964;SDS011;28604;51.204;22.552;2023-05-07T03:29:32;0.65;;;0.52;;
42964;SDS011;28604;51.204;22.552;2023-05-07T03:31:58;2.63;;;0.35;;
42964;SDS011;28604;51.204;22.552;2023-05-07T03:34:24;0.50;;;0.50;;
42964;SDS011;28604;51.204;22.552;2023-05-07T03:36:50;1.27;;;0.47;;
42964;SDS011;28604;51.204;22.552;2023-05-07T03:39:18;0.68;;;0.60;;
42964;SDS011;28604;51.204;22.552;2023-05-07T03:41:44;2.20;;;0.65;;
42964;SDS011;28604;51.204;22.552;2023-05-07T03:44:10;2.53;;;0.52;;
42964;SDS011;28604;51.204;22.552;2023-05-07T03:46:36;0.70;;;0.70;;
42964;SDS011;28604;51.204;22.552;2023-05-07T03:49:03;0.52;;;0.52;;
42964;SDS011;28604;51.204;22.552;2023-05-07T03:51:29;3.53;;;0.43;;
42964;SDS011;28604;51.204;22.552;2023-05-07T03:53:55;3.30;;;0.50;;
42964;SDS011;28604;51.204;22.552;2023-05-07T03:56:23;1.00;;;0.70;;
42964;SDS011;28604;51.204;22.552;2023-05-07T03:58:53;0.75;;;0.63;;
42964;SDS011;28604;51.204;22.552;2023-05-07T04:01:20;1.20;;;0.60;;
42964;SDS011;28604;51.204;22.552;2023-05-07T04:03:47;0.82;;;0.40;;
42964;SDS011;28604;51.204;22.552;2023-05-07T04:06:15;1.00;;;0.55;;
42964;SDS011;28604;51.204;22.552;2023-05-07T04:08:44;1.85;;;0.70;;
42964;SDS011;28604;51.204;22.552;2023-05-07T04:11:10;0.65;;;0.65;;
42964;SDS011;28604;51.204;22.552;2023-05-07T04:13:36;1.27;;;0.90;;
42964;SDS011;28604;51.204;22.552;2023-05-07T04:16:05;1.27;;;0.57;;
42964;SDS011;28604;51.204;22.552;2023-05-07T04:18:34;1.00;;;0.82;;
42964;SDS011;28604;51.204;22.552;2023-05-07T04:21:00;1.05;;;0.70;;
42964;SDS011;28604;51.204;22.552;2023-05-07T04:23:25;0.95;;;0.70;;
42964;SDS011;28604;51.204;22.552;2023-05-07T04:25:53;1.13;;;1.13;;
42964;SDS011;28604;51.204;22.552;2023-05-07T04:28:28;0.47;;;0.47;;
42964;SDS011;28604;51.204;22.552;2023-05-07T04:30:54;1.30;;;0.52;;
42964;SDS011;28604;51.204;22.552;2023-05-07T04:33:21;0.80;;;0.80;;
42964;SDS011;28604;51.204;22.552;2023-05-07T04:35:48;0.40;;;0.40;;
42964;SDS011;28604;51.204;22.552;2023-05-07T04:38:14;0.65;;;0.65;;
42964;SDS011;28604;51.204;22.552;2023-05-07T04:40:42;0.93;;;0.47;;
42964;SDS011;28604;51.204;22.552;2023-05-07T04:43:11;0.30;;;0.30;;
42964;SDS011;28604;51.204;22.552;2023-05-07T04:45:44;0.30;;;0.30;;
42964;SDS011;28604;51.204;22.552;2023-05-07T04:48:10;0.50;;;0.50;;
42964;SDS011;28604;51.204;22.552;2023-05-07T04:50:38;2.08;;;0.40;;
42964;SDS011;28604;51.204;22.552;2023-05-07T04:53:05;1.60;;;0.35;;
42964;SDS011;28604;51.204;22.552;2023-05-07T04:55:31;1.50;;;0.60;;
42964;SDS011;28604;51.204;22.552;2023-05-07T04:57:57;1.33;;;0.60;;
42964;SDS011;28604;51.204;22.552;2023-05-07T05:00:23;0.20;;;0.20;;
42964;SDS011;28604;51.204;22.552;2023-05-07T05:02:52;0.70;;;0.70;;
42964;SDS011;28604;51.204;22.552;2023-05-07T05:05:20;1.55;;;0.57;;
42964;SDS011;28604;51.204;22.552;2023-05-07T05:07:49;0.60;;;0.60;;
42964;SDS011;28604;51.204;22.552;2023-05-07T05:10:17;0.70;;;0.70;;
42964;SDS011;28604;51.204;22.552;2023-05-07T05:12:43;0.45;;;0.40;;
42964;SDS011;28604;51.204;22.552;2023-05-07T05:15:11;0.68;;;0.50;;
42964;SDS011;28604;51.204;22.552;2023-05-07T05:17:37;0.55;;;0.52;;
42964;SDS011;28604;51.204;22.552;2023-05-07T05:20:05;1.55;;;0.45;;
42964;SDS011;28604;51.204;22.552;2023-05-07T05:22:32;0.70;;;0.70;;
42964;SDS011;28604;51.204;22.552;2023-05-07T05:24:59;1.58;;;1.00;;
42964;SDS011;28604;51.204;22.552;2023-05-07T05:27:26;2.08;;;0.38;;
42964;SDS011;28604;51.204;22.552;2023-05-07T05:29:53;0.32;;;0.32;;
42964;SDS011;28604;51.204;22.552;2023-05-07T05:32:18;1.08;;;1.08;;
42964;SDS011;28604;51.204;22.552;2023-05-07T05:34:45;0.80;;;0.80;;
42964;SDS011;28604;51.204;22.552;2023-05-07T05:37:11;1.45;;;0.80;;
42964;SDS011;28604;51.204;22.552;2023-05-07T05:39:37;0.90;;;0.90;;
42964;SDS011;28604;51.204;22.552;2023-05-07T05:42:04;0.80;;;0.63;;
42964;SDS011;28604;51.204;22.552;2023-05-07T05:44:33;0.85;;;0.85;;
42964;SDS011;28604;51.204;22.552;2023-05-07T05:46:59;0.50;;;0.50;;
42964;SDS011;28604;51.204;22.552;2023-05-07T05:49:27;0.65;;;0.65;;
42964;SDS011;28604;51.204;22.552;2023-05-07T05:51:52;0.98;;;0.80;;
42964;SDS011;28604;51.204;22.552;2023-05-07T05:54:20;0.80;;;0.80;;
42964;SDS011;28604;51.204;22.552;2023-05-07T05:56:47;1.55;;;0.60;;
42964;SDS011;28604;51.204;22.552;2023-05-07T05:59:13;4.57;;;0.77;;
42964;SDS011;28604;51.204;22.552;2023-05-07T06:01:39;1.75;;;0.60;;
42964;SDS011;28604;51.204;22.552;2023-05-07T06:04:06;1.75;;;0.60;;
42964;SDS011;28604;51.204;22.552;2023-05-07T06:06:32;1.13;;;1.05;;
42964;SDS011;28604;51.204;22.552;2023-05-07T06:08:59;1.20;;;0.80;;
42964;SDS011;28604;51.204;22.552;2023-05-07T06:11:33;0.70;;;0.70;;
42964;SDS011;28604;51.204;22.552;2023-05-07T06:13:59;1.05;;;1.02;;
42964;SDS011;28604;51.204;22.552;2023-05-07T06:16:26;3.05;;;0.75;;
42964;SDS011;28604;51.204;22.552;2023-05-07T06:18:53;0.75;;;0.75;;
42964;SDS011;28604;51.204;22.552;2023-05-07T06:21:19;0.98;;;0.73;;
42964;SDS011;28604;51.204;22.552;2023-05-07T06:23:45;1.05;;;1.05;;
42964;SDS011;28604;51.204;22.552;2023-05-07T06:32:02;1.00;;;1.00;;
42964;SDS011;28604;51.204;22.552;2023-05-07T06:34:41;4.32;;;1.20;;
42964;SDS011;28604;51.204;22.552;2023-05-07T06:37:08;1.50;;;0.80;;
42964;SDS011;28604;51.204;22.552;2023-05-07T06:39:47;0.85;;;0.85;;
42964;SDS011;28604;51.204;22.552;2023-05-07T06:42:13;2.30;;;1.05;;
42964;SDS011;28604;51.204;22.552;2023-05-07T06:44:42;1.10;;;1.10;;
42964;SDS011;28604;51.204;22.552;2023-05-07T06:47:10;0.85;;;0.85;;
42964;SDS011;28604;51.204;22.552;2023-05-07T06:49:39;1.45;;;1.35;;
42964;SDS011;28604;51.204;22.552;2023-05-07T06:52:04;2.05;;;1.27;;
42964;SDS011;28604;51.204;22.552;2023-05-07T06:54:31;2.05;;;1.83;;
42964;SDS011;28604;51.204;22.552;2023-05-07T06:56:57;2.53;;;2.33;;
42964;SDS011;28604;51.204;22.552;2023-05-07T06:59:25;3.15;;;2.40;;
42964;SDS011;28604;51.204;22.552;2023-05-07T07:01:52;3.45;;;2.30;;
42964;SDS011;28604;51.204;22.552;2023-05-07T07:04:18;3.50;;;1.75;;
42964;SDS011;28604;51.204;22.552;2023-05-07T07:06:52;2.03;;;1.85;;
42964;SDS011;28604;51.204;22.552;2023-05-07T07:09:19;1.67;;;1.58;;
42964;SDS011;28604;51.204;22.552;2023-05-07T07:11:44;2.35;;;1.52;;
42964;SDS011;28604;51.204;22.552;2023-05-07T07:14:11;1.35;;;1.30;;
42964;SDS011;28604;51.204;22.552;2023-05-07T07:16:44;4.70;;;2.15;;
42964;SDS011;28604;51.204;22.552;2023-05-07T07:19:12;2.38;;;1.35;;
42964;SDS011;28604;51.204;22.552;2023-05-07T07:21:38;2.42;;;2.22;;
42964;SDS011;28604;51.204;22.552;2023-05-07T07:24:04;2.05;;;1.95;;
42964;SDS011;28604;51.204;22.552;2023-05-07T07:26:30;2.22;;;1.85;;
42964;SDS011;28604;51.204;22.552;2023-05-07T07:28:56;1.70;;;1.58;;
42964;SDS011;28604;51.204;22.552;2023-05-07T07:31:23;3.05;;;2.03;;
42964;SDS011;28604;51.204;22.552;2023-05-07T07:33:50;4.43;;;1.70;;
42964;SDS011;28604;51.204;22.552;2023-05-07T07:36:16;9.63;;;2.40;;
42964;SDS011;28604;51.204;22.552;2023-05-07T07:38:43;2.50;;;2.30;;
42964;SDS011;28604;51.204;22.552;2023-05-07T07:41:08;3.45;;;2.47;;
42964;SDS011;28604;51.204;22.552;2023-05-07T07:43:35;1.40;;;1.40;;
42964;SDS011;28604;51.204;22.552;2023-05-07T07:46:01;6.68;;;2.20;;
42964;SDS011;28604;51.204;22.552;2023-05-07T07:48:28;2.00;;;1.90;;
42964;SDS011;28604;51.204;22.552;2023-05-07T07:50:55;2.85;;;1.88;;
42964;SDS011;28604;51.204;22.552;2023-05-07T07:53:21;1.38;;;1.33;;
42964;SDS011;28604;51.204;22.552;2023-05-07T07:55:48;1.85;;;1.67;;
42964;SDS011;28604;51.204;22.552;2023-05-07T07:58:17;3.53;;;1.60;;
42964;SDS011;28604;51.204;22.552;2023-05-07T08:00:43;1.95;;;1.80;;
42964;SDS011;28604;51.204;22.552;2023-05-07T08:03:10;2.63;;;2.30;;
42964;SDS011;28604;51.204;22.552;2023-05-07T08:05:39;10.95;;;8.75;;
42964;SDS011;28604;51.204;22.552;2023-05-07T08:08:06;3.38;;;3.08;;
42964;SDS011;28604;51.204;22.552;2023-05-07T08:10:35;3.65;;;1.90;;
42964;SDS011;28604;51.204;22.552;2023-05-07T08:13:08;4.53;;;2.42;;
42964;SDS011;28604;51.204;22.552;2023-05-07T08:15:35;4.38;;;2.20;;
42964;SDS011;28604;51.204;22.552;2023-05-07T08:18:02;3.42;;;2.50;;
42964;SDS011;28604;51.204;22.552;2023-05-07T08:20:29;2.40;;;2.20;;
42964;SDS011;28604;51.204;22.552;2023-05-07T08:22:56;3.13;;;2.20;;
42964;SDS011;28604;51.204;22.552;2023-05-07T08:25:22;3.80;;;2.45;;
42964;SDS011;28604;51.204;22.552;2023-05-07T08:27:49;5.78;;;3.00;;
42964;SDS011;28604;51.204;22.552;2023-05-07T08:30:15;5.15;;;2.42;;
42964;SDS011;28604;51.204;22.552;2023-05-07T08:32:42;2.25;;;2.20;;
42964;SDS011;28604;51.204;22.552;2023-05-07T08:35:08;1.83;;;1.67;;
42964;SDS011;28604;51.204;22.552;2023-05-07T08:37:34;2.03;;;1.80;;
42964;SDS011;28604;51.204;22.552;2023-05-07T08:40:01;2.85;;;2.60;;
42964;SDS011;28604;51.204;22.552;2023-05-07T08:42:31;2.65;;;2.45;;
42964;SDS011;28604;51.204;22.552;2023-05-07T08:45:02;3.55;;;2.10;;
42964;SDS011;28604;51.204;22.552;2023-05-07T08:47:34;2.28;;;2.10;;
42964;SDS011;28604;51.204;22.552;2023-05-07T08:50:08;6.65;;;2.92;;
42964;SDS011;28604;51.204;22.552;2023-05-07T08:52:34;15.93;;;8.75;;
42964;SDS011;28604;51.204;22.552;2023-05-07T08:55:01;7.32;;;3.30;;
42964;SDS011;28604;51.204;22.552;2023-05-07T08:57:29;2.63;;;2.45;;
42964;SDS011;28604;51.204;22.552;2023-05-07T08:59:55;2.60;;;2.40;;
42964;SDS011;28604;51.204;22.552;2023-05-07T09:02:22;2.97;;;2.78;;
42964;SDS011;28604;51.204;22.552;2023-05-07T09:04:47;3.08;;;2.70;;
42964;SDS011;28604;51.204;22.552;2023-05-07T09:07:14;3.92;;;2.58;;
42964;SDS011;28604;51.204;22.552;2023-05-07T09:09:43;3.88;;;2.15;;
42964;SDS011;28604;51.204;22.552;2023-05-07T09:12:11;2.55;;;2.38;;
42964;SDS011;28604;51.204;22.552;2023-05-07T09:14:37;2.03;;;1.92;;
42964;SDS011;28604;51.204;22.552;2023-05-07T09:17:04;3.75;;;2.47;;
42964;SDS011;28604;51.204;22.552;2023-05-07T09:19:30;4.03;;;2.63;;
42964;SDS011;28604;51.204;22.552;2023-05-07T09:22:00;3.15;;;2.53;;
42964;SDS011;28604;51.204;22.552;2023-05-07T09:24:32;4.25;;;2.78;;
42964;SDS011;28604;51.204;22.552;2023-05-07T09:27:05;5.03;;;2.67;;
42964;SDS011;28604;51.204;22.552;2023-05-07T09:29:32;4.65;;;2.28;;
42964;SDS011;28604;51.204;22.552;2023-05-07T09:32:03;2.85;;;1.92;;
42964;SDS011;28604;51.204;22.552;2023-05-07T09:34:33;7.07;;;2.30;;
42964;SDS011;28604;51.204;22.552;2023-05-07T09:37:04;3.00;;;2.72;;
42964;SDS011;28604;51.204;22.552;2023-05-07T09:39:41;3.55;;;3.20;;
42964;SDS011;28604;51.204;22.552;2023-05-07T09:42:13;3.15;;;2.78;;
42964;SDS011;28604;51.204;22.552;2023-05-07T09:44:45;5.75;;;2.75;;
42964;SDS011;28604;51.204;22.552;2023-05-07T09:47:18;3.30;;;2.13;;
42964;SDS011;28604;51.204;22.552;2023-05-07T09:49:49;2.67;;;2.33;;
42964;SDS011;28604;51.204;22.552;2023-05-07T09:52:20;4.47;;;2.50;;
42964;SDS011;28604;51.204;22.552;2023-05-07T09:54:51;4.63;;;2.38;;
42964;SDS011;28604;51.204;22.552;2023-05-07T09:57:23;3.20;;;2.28;;
42964;SDS011;28604;51.204;22.552;2023-05-07T09:59:55;3.40;;;2.67;;
42964;SDS011;28604;51.204;22.552;2023-05-07T10:02:25;3.40;;;2.28;;
42964;SDS011;28604;51.204;22.552;2023-05-07T10:04:54;2.20;;;2.10;;
42964;SDS011;28604;51.204;22.552;2023-05-07T10:07:26;4.00;;;2.22;;
42964;SDS011;28604;51.204;22.552;2023-05-07T10:09:56;4.90;;;2.10;;
42964;SDS011;28604;51.204;22.552;2023-05-07T10:12:35;7.88;;;2.55;;
42964;SDS011;28604;51.204;22.552;2023-05-07T10:15:06;3.20;;;2.63;;
42964;SDS011;28604;51.204;22.552;2023-05-07T10:17:37;2.05;;;1.95;;
42964;SDS011;28604;51.204;22.552;2023-05-07T10:20:04;3.33;;;1.90;;
42964;SDS011;28604;51.204;22.552;2023-05-07T10:22:33;3.40;;;3.10;;
42964;SDS011;28604;51.204;22.552;2023-05-07T10:25:06;5.28;;;3.08;;
42964;SDS011;28604;51.204;22.552;2023-05-07T10:27:45;2.70;;;2.22;;
42964;SDS011;28604;51.204;22.552;2023-05-07T10:30:57;4.63;;;3.33;;
42964;SDS011;28604;51.204;22.552;2023-05-07T10:33:28;5.35;;;2.72;;
42964;SDS011;28604;51.204;22.552;2023-05-07T10:35:58;1.70;;;1.60;;
42964;SDS011;28604;51.204;22.552;2023-05-07T10:38:27;2.28;;;1.90;;
42964;SDS011;28604;51.204;22.552;2023-05-07T10:40:54;1.70;;;1.60;;
42964;SDS011;28604;51.204;22.552;2023-05-07T10:43:20;2.78;;;2.25;;
42964;SDS011;28604;51.204;22.552;2023-05-07T10:46:11;2.87;;;2.00;;
42964;SDS011;28604;51.204;22.552;2023-05-07T10:51:26;1.92;;;1.83;;
42964;SDS011;28604;51.204;22.552;2023-05-07T10:56:39;1.90;;;1.80;;
42964;SDS011;28604;51.204;22.552;2023-05-07T11:01:53;2.30;;;1.50;;
42964;SDS011;28604;51.204;22.552;2023-05-07T11:04:31;1.65;;;1.55;;
42964;SDS011;28604;51.204;22.552;2023-05-07T11:07:21;1.88;;;1.77;;
42964;SDS011;28604;51.204;22.552;2023-05-07T11:15:08;4.78;;;1.35;;
42964;SDS011;28604;51.204;22.552;2023-05-07T11:17:53;1.70;;;1.60;;
42964;SDS011;28604;51.204;22.552;2023-05-07T11:20:38;3.75;;;1.95;;
42964;SDS011;28604;51.204;22.552;2023-05-07T11:26:16;2.50;;;2.10;;
42964;SDS011;28604;51.204;22.552;2023-05-07T11:28:43;3.55;;;2.55;;
42964;SDS011;28604;51.204;22.552;2023-05-07T11:31:10;2.33;;;2.13;;
42964;SDS011;28604;51.204;22.552;2023-05-07T11:33:38;2.70;;;2.50;;
42964;SDS011;28604;51.204;22.552;2023-05-07T11:36:07;3.40;;;2.90;;
42964;SDS011;28604;51.204;22.552;2023-05-07T11:38:38;4.63;;;2.40;;
42964;SDS011;28604;51.204;22.552;2023-05-07T11:41:05;3.47;;;2.88;;
42964;SDS011;28604;51.204;22.552;2023-05-07T11:43:31;2.67;;;2.47;;
42964;SDS011;28604;51.204;22.552;2023-05-07T11:46:05;2.13;;;2.03;;
42964;SDS011;28604;51.204;22.552;2023-05-07T11:48:32;5.30;;;1.83;;
42964;SDS011;28604;51.204;22.552;2023-05-07T11:53:26;2.30;;;2.10;;
42964;SDS011;28604;51.204;22.552;2023-05-07T11:55:57;3.42;;;2.47;;
42964;SDS011;28604;51.204;22.552;2023-05-07T11:58:24;2.45;;;2.28;;
42964;SDS011;28604;51.204;22.552;2023-05-07T12:00:53;2.78;;;2.00;;
42964;SDS011;28604;51.204;22.552;2023-05-07T12:03:20;2.72;;;1.52;;
42964;SDS011;28604;51.204;22.552;2023-05-07T12:05:47;2.88;;;2.03;;
42964;SDS011;28604;51.204;22.552;2023-05-07T12:08:16;3.50;;;1.95;;
42964;SDS011;28604;51.204;22.552;2023-05-07T12:10:44;2.72;;;1.60;;
42964;SDS011;28604;51.204;22.552;2023-05-07T12:13:21;5.07;;;2.55;;
42964;SDS011;28604;51.204;22.552;2023-05-07T12:15:50;3.83;;;3.08;;
42964;SDS011;28604;51.204;22.552;2023-05-07T12:18:17;1.67;;;1.58;;
42964;SDS011;28604;51.204;22.552;2023-05-07T12:20:43;2.08;;;1.73;;
42964;SDS011;28604;51.204;22.552;2023-05-07T12:23:10;4.68;;;2.78;;
42964;SDS011;28604;51.204;22.552;2023-05-07T12:25:37;6.97;;;2.65;;
42964;SDS011;28604;51.204;22.552;2023-05-07T12:28:04;3.88;;;2.38;;
42964;SDS011;28604;51.204;22.552;2023-05-07T12:30:40;1.80;;;1.65;;
42964;SDS011;28604;51.204;22.552;2023-05-07T12:33:07;2.45;;;2.15;;
42964;SDS011;28604;51.204;22.552;2023-05-07T12:35:37;2.92;;;2.25;;
42964;SDS011;28604;51.204;22.552;2023-05-07T12:38:08;2.70;;;2.03;;
42964;SDS011;28604;51.204;22.552;2023-05-07T12:40:45;1.75;;;1.63;;
42964;SDS011;28604;51.204;22.552;2023-05-07T12:43:25;2.28;;;1.80;;
42964;SDS011;28604;51.204;22.552;2023-05-07T12:45:56;1.92;;;1.83;;
42964;SDS011;28604;51.204;22.552;2023-05-07T12:48:25;1.45;;;1.35;;
42964;SDS011;28604;51.204;22.552;2023-05-07T12:50:52;2.83;;;1.70;;
42964;SDS011;28604;51.204;22.552;2023-05-07T12:53:20;4.57;;;2.25;;
42964;SDS011;28604;51.204;22.552;2023-05-07T12:55:48;8.13;;;3.03;;
42964;SDS011;28604;51.204;22.552;2023-05-07T12:58:17;5.78;;;1.98;;
42964;SDS011;28604;51.204;22.552;2023-05-07T13:00:47;2.10;;;1.92;;
42964;SDS011;28604;51.204;22.552;2023-05-07T13:03:20;3.10;;;1.70;;
42964;SDS011;28604;51.204;22.552;2023-05-07T13:05:54;1.60;;;1.48;;
42964;SDS011;28604;51.204;22.552;2023-05-07T13:10:51;3.90;;;1.50;;
42964;SDS011;28604;51.204;22.552;2023-05-07T13:13:18;4.97;;;1.20;;
42964;SDS011;28604;51.204;22.552;2023-05-07T13:15:46;1.75;;;1.35;;
42964;SDS011;28604;51.204;22.552;2023-05-07T13:18:12;2.13;;;1.25;;
42964;SDS011;28604;51.204;22.552;2023-05-07T13:20:38;1.45;;;1.45;;
42964;SDS011;28604;51.204;22.552;2023-05-07T13:23:04;1.45;;;1.35;;
42964;SDS011;28604;51.204;22.552;2023-05-07T13:25:30;1.48;;;1.20;;
42964;SDS011;28604;51.204;22.552;2023-05-07T13:27:56;1.77;;;1.65;;
42964;SDS011;28604;51.204;22.552;2023-05-07T13:30:23;2.08;;;1.45;;
42964;SDS011;28604;51.204;22.552;2023-05-07T13:32:49;2.22;;;1.30;;
42964;SDS011;28604;51.204;22.552;2023-05-07T13:35:16;1.83;;;1.35;;
42964;SDS011;28604;51.204;22.552;2023-05-07T13:37:42;2.22;;;1.50;;
42964;SDS011;28604;51.204;22.552;2023-05-07T13:40:08;2.58;;;1.42;;
42964;SDS011;28604;51.204;22.552;2023-05-07T13:42:34;2.78;;;1.85;;
42964;SDS011;28604;51.204;22.552;2023-05-07T13:45:00;1.00;;;1.00;;
42964;SDS011;28604;51.204;22.552;2023-05-07T13:47:28;1.20;;;1.10;;
42964;SDS011;28604;51.204;22.552;2023-05-07T13:49:54;0.98;;;0.98;;
42964;SDS011;28604;51.204;22.552;2023-05-07T13:52:20;1.30;;;1.20;;
42964;SDS011;28604;51.204;22.552;2023-05-07T13:54:46;1.42;;;1.33;;
42964;SDS011;28604;51.204;22.552;2023-05-07T13:57:12;1.27;;;1.20;;
42964;SDS011;28604;51.204;22.552;2023-05-07T13:59:38;1.67;;;1.25;;
42964;SDS011;28604;51.204;22.552;2023-05-07T14:02:04;1.60;;;1.50;;
42964;SDS011;28604;51.204;22.552;2023-05-07T14:04:30;1.52;;;1.42;;
42964;SDS011;28604;51.204;22.552;2023-05-07T14:06:56;1.73;;;1.50;;
42964;SDS011;28604;51.204;22.552;2023-05-07T14:09:22;1.35;;;1.35;;
42964;SDS011;28604;51.204;22.552;2023-05-07T14:11:48;1.48;;;1.38;;
42964;SDS011;28604;51.204;22.552;2023-05-07T14:14:17;1.55;;;1.20;;
42964;SDS011;28604;51.204;22.552;2023-05-07T14:16:44;1.65;;;1.55;;
42964;SDS011;28604;51.204;22.552;2023-05-07T14:19:11;2.38;;;1.17;;
42964;SDS011;28604;51.204;22.552;2023-05-07T14:21:37;1.27;;;1.17;;
42964;SDS011;28604;51.204;22.552;2023-05-07T14:24:03;1.20;;;1.10;;
42964;SDS011;28604;51.204;22.552;2023-05-07T14:26:32;1.63;;;1.35;;
42964;SDS011;28604;51.204;22.552;2023-05-07T14:28:58;1.50;;;1.40;;
42964;SDS011;28604;51.204;22.552;2023-05-07T14:31:24;1.63;;;1.10;;
42964;SDS011;28604;51.204;22.552;2023-05-07T14:33:51;1.00;;;1.00;;
42964;SDS011;28604;51.204;22.552;2023-05-07T14:36:17;1.77;;;1.40;;
42964;SDS011;28604;51.204;22.552;2023-05-07T14:38:45;1.50;;;1.40;;
42964;SDS011;28604;51.204;22.552;2023-05-07T14:41:12;1.42;;;1.33;;
42964;SDS011;28604;51.204;22.552;2023-05-07T14:43:38;3.80;;;2.67;;
42964;SDS011;28604;51.204;22.552;2023-05-07T14:46:03;1.55;;;1.45;;
42964;SDS011;28604;51.204;22.552;2023-05-07T14:48:30;3.55;;;1.15;;
42964;SDS011;28604;51.204;22.552;2023-05-07T14:50:55;2.03;;;1.33;;
42964;SDS011;28604;51.204;22.552;2023-05-07T14:53:22;1.92;;;0.95;;
42964;SDS011;28604;51.204;22.552;2023-05-07T14:55:48;1.30;;;1.20;;
42964;SDS011;28604;51.204;22.552;2023-05-07T14:58:14;4.72;;;1.67;;
42964;SDS011;28604;51.204;22.552;2023-05-07T15:00:40;1.05;;;1.00;;
42964;SDS011;28604;51.204;22.552;2023-05-07T15:03:07;6.28;;;1.48;;
42964;SDS011;28604;51.204;22.552;2023-05-07T15:05:35;1.27;;;1.13;;
42964;SDS011;28604;51.204;22.552;2023-05-07T15:08:02;1.95;;;1.73;;
42964;SDS011;28604;51.204;22.552;2023-05-07T15:10:28;3.58;;;2.05;;
42964;SDS011;28604;51.204;22.552;2023-05-07T15:12:54;9.20;;;2.97;;